createdAt,value
2018-03-03T00:07:25.310Z,-2.10
2018-03-03T00:12:28.511Z,-2.10
2018-03-03T00:22:41.996Z,-2.10
2018-03-03T00:27:45.856Z,-2.00
2018-03-03T00:32:50.112Z,-1.90
2018-03-03T00:37:53.224Z,-2.00
2018-03-03T00:42:57.115Z,-2.00
2018-03-03T00:48:00.278Z,-2.00
2018-03-03T00:53:03.538Z,-2.00
2018-03-03T00:58:07.400Z,-2.00
2018-03-03T01:03:10.948Z,-1.90
2018-03-03T01:08:14.048Z,-2.00
2018-03-03T01:13:17.142Z,-2.00
2018-03-03T01:18:20.248Z,-2.00
2018-03-03T01:23:23.367Z,-2.00
2018-03-03T01:28:26.477Z,-1.90
2018-03-03T01:33:29.574Z,-1.90
2018-03-03T01:38:32.681Z,-1.90
2018-03-03T01:43:35.780Z,-1.90
2018-03-03T01:48:38.880Z,-2.00
2018-03-03T01:53:42.761Z,-1.90
2018-03-03T01:58:46.633Z,-1.90
2018-03-03T02:03:49.740Z,-1.80
2018-03-03T02:08:53.994Z,-1.70
2018-03-03T02:13:57.085Z,-1.70
2018-03-03T02:19:00.575Z,-1.70
2018-03-03T02:24:03.675Z,-1.70
2018-03-03T02:34:11.981Z,-1.60
2018-03-03T02:39:15.083Z,-1.60
2018-03-03T02:44:18.180Z,-1.50
2018-03-03T02:49:21.309Z,-1.50
2018-03-03T02:54:24.814Z,-1.40
2018-03-03T02:59:27.925Z,-1.40
2018-03-03T03:04:31.014Z,-1.40
2018-03-03T03:09:34.125Z,-1.40
2018-03-03T03:14:37.220Z,-1.40
2018-03-03T03:19:41.090Z,-1.50
2018-03-03T03:24:44.196Z,-1.50
2018-03-03T03:29:48.440Z,-1.40
2018-03-03T03:34:51.546Z,-1.40
2018-03-03T03:39:55.450Z,-1.40
2018-03-03T03:44:58.536Z,-1.40
2018-03-03T03:50:01.652Z,-1.40
2018-03-03T03:55:05.889Z,-1.40
2018-03-03T04:00:08.999Z,-1.50
2018-03-03T04:05:12.094Z,-1.40
2018-03-03T04:10:15.594Z,-1.40
2018-03-03T04:15:19.465Z,-1.40
2018-03-03T04:20:23.316Z,-1.40
2018-03-03T04:25:26.426Z,-1.30
2018-03-03T04:30:29.520Z,-1.30
2018-03-03T04:35:34.127Z,-1.20
2018-03-03T04:40:37.617Z,-1.10
2018-03-03T04:45:41.857Z,-1.20
2018-03-03T04:50:45.719Z,-1.10
2018-03-03T04:55:49.224Z,-1.10
2018-03-03T05:00:56.629Z,-1.20
2018-03-03T05:11:07.751Z,-1.20
2018-03-03T05:16:16.510Z,-1.10
2018-03-03T05:21:21.564Z,-1.10
2018-03-03T05:26:31.758Z,-1.10
2018-03-03T05:36:51.251Z,-1.00
2018-03-03T05:41:59.904Z,-1.10
2018-03-03T05:47:06.303Z,-1.00
2018-03-03T05:52:15.036Z,-1.00
2018-03-03T06:03:08.164Z,-1.00
2018-03-03T06:08:12.938Z,-1.10
2018-03-03T06:13:16.793Z,-1.10
2018-03-03T06:18:20.645Z,-1.00
2018-03-03T06:23:24.515Z,-1.10
2018-03-03T06:28:28.364Z,-1.00
2018-03-03T06:33:32.223Z,-1.00
2018-03-03T06:38:35.311Z,-1.00
2018-03-03T06:43:39.543Z,-1.00
2018-03-03T06:53:47.486Z,-0.90
2018-03-03T07:03:54.978Z,-0.90
2018-03-03T07:08:58.456Z,-0.80
2018-03-03T07:14:02.315Z,-0.80
2018-03-03T07:19:05.388Z,-0.70
2018-03-03T07:24:09.236Z,-0.70
2018-03-03T07:29:12.332Z,-0.70
2018-03-03T07:34:16.176Z,-0.70
2018-03-03T07:39:19.266Z,-0.70
2018-03-03T07:44:22.748Z,-0.70
2018-03-03T07:49:25.833Z,-0.70
2018-03-03T07:54:29.695Z,-0.80
2018-03-03T07:59:33.914Z,-0.70
2018-03-03T08:04:37.801Z,-0.70
2018-03-03T08:09:41.280Z,-0.70
2018-03-03T08:14:44.401Z,-0.60
2018-03-03T08:19:47.879Z,-0.60
2018-03-03T08:24:52.472Z,-0.40
2018-03-03T08:35:00.012Z,-0.40
2018-03-03T08:40:03.516Z,-0.30
2018-03-03T08:45:06.601Z,-0.20
2018-03-03T08:50:10.837Z,-0.20
2018-03-03T08:55:14.701Z,0.00
2018-03-03T09:00:17.792Z,0.40
2018-03-03T09:05:20.883Z,0.70
2018-03-03T09:10:25.427Z,0.60
2018-03-03T09:20:34.447Z,0.30
2018-03-03T09:25:37.920Z,0.40
2018-03-03T09:35:46.199Z,1.00
2018-03-03T09:40:49.292Z,1.20
2018-03-03T09:45:53.148Z,1.40
2018-03-03T09:50:56.987Z,2.50
2018-03-03T10:01:05.276Z,3.30
2018-03-03T10:11:13.184Z,3.80
2018-03-03T10:21:21.117Z,4.90
2018-03-03T10:26:24.600Z,3.90
2018-03-03T10:31:28.085Z,3.00
2018-03-03T10:36:31.576Z,2.50
2018-03-03T10:41:35.471Z,2.40
2018-03-03T10:46:38.511Z,2.20
2018-03-03T11:01:51.253Z,2.20
2018-03-03T11:06:55.850Z,2.00
2018-03-03T11:17:03.872Z,1.50
2018-03-03T11:37:20.364Z,1.40
2018-03-03T11:42:23.477Z,1.30
2018-03-03T11:47:26.957Z,1.20
2018-03-03T11:52:30.431Z,1.60
2018-03-03T11:57:33.519Z,1.50
2018-03-03T12:02:36.603Z,1.50
2018-03-03T12:07:40.476Z,1.50
2018-03-03T12:12:44.672Z,1.60
2018-03-03T12:17:47.775Z,1.50
2018-03-03T12:22:52.373Z,1.60
2018-03-03T12:27:55.454Z,1.60
2018-03-03T12:32:59.688Z,1.60
2018-03-03T12:43:08.596Z,1.60
2018-03-03T12:53:16.897Z,1.90
2018-03-03T12:58:20.393Z,1.70
2018-03-03T13:03:24.599Z,1.50
2018-03-03T13:08:27.688Z,1.50
2018-03-03T13:13:31.605Z,1.60
2018-03-03T13:18:35.463Z,1.80
2018-03-03T13:28:44.022Z,1.80
2018-03-03T13:38:51.982Z,2.10
2018-03-03T13:48:59.512Z,2.30
2018-03-03T13:59:07.660Z,2.50
2018-03-03T14:04:10.730Z,2.50
2018-03-03T14:09:14.589Z,2.50
2018-03-03T14:14:17.680Z,2.40
2018-03-03T14:24:25.559Z,2.40
2018-03-03T14:29:29.423Z,2.40
2018-03-03T14:34:33.261Z,2.30
2018-03-03T14:39:37.098Z,2.40
2018-03-03T14:49:45.001Z,2.50
2018-03-03T14:54:48.841Z,2.50
2018-03-03T15:04:56.392Z,2.50
2018-03-03T15:09:59.887Z,2.50
2018-03-03T15:15:03.733Z,2.50
2018-03-03T15:20:06.885Z,2.50
2018-03-03T15:25:10.004Z,2.60
2018-03-03T15:30:14.608Z,2.60
2018-03-03T15:35:18.456Z,2.50
2018-03-03T15:40:23.100Z,2.60
2018-03-03T15:55:36.150Z,2.50
2018-03-03T16:15:54.101Z,2.10
2018-03-03T16:26:02.037Z,2.00
2018-03-03T16:31:05.141Z,2.00
2018-03-03T16:36:08.242Z,1.90
2018-03-03T16:41:11.739Z,1.80
2018-03-03T16:46:16.841Z,1.70
2018-03-03T16:51:20.701Z,1.70
2018-03-03T17:01:29.040Z,1.70
2018-03-03T17:11:36.977Z,1.70
2018-03-03T17:16:41.188Z,1.60
2018-03-03T17:21:44.291Z,1.60
2018-03-03T17:31:53.339Z,1.70
2018-03-03T17:42:02.356Z,1.80
2018-03-03T17:47:06.587Z,1.80
2018-03-03T17:52:09.689Z,1.80
2018-03-03T17:57:13.550Z,1.80
2018-03-03T18:02:18.497Z,1.80
2018-03-03T18:12:27.525Z,1.80
2018-03-03T18:17:31.022Z,1.90
2018-03-03T18:22:34.104Z,1.80
2018-03-03T18:32:42.472Z,1.90
2018-03-03T18:37:46.152Z,1.90
2018-03-03T18:42:50.735Z,1.90
2018-03-03T18:47:55.578Z,1.80
2018-03-03T18:52:58.664Z,1.80
2018-03-03T18:58:02.880Z,1.80
2018-03-03T19:03:05.960Z,1.80
2018-03-03T19:08:09.053Z,1.80
2018-03-03T19:13:13.632Z,1.90
2018-03-03T19:18:16.748Z,1.90
2018-03-03T19:28:25.068Z,2.00
2018-03-03T19:38:32.710Z,2.00
2018-03-03T19:43:36.788Z,2.80
2018-03-03T19:48:41.458Z,1.90
2018-03-03T19:53:45.430Z,1.90
2018-03-03T19:58:49.394Z,1.90
2018-03-03T20:03:53.306Z,1.80
2018-03-03T20:08:56.890Z,1.80
2018-03-03T20:14:00.106Z,1.80
2018-03-03T20:19:03.236Z,1.70
2018-03-03T20:29:11.029Z,1.60
2018-03-03T20:34:16.167Z,1.60
2018-03-03T20:39:20.160Z,1.60
2018-03-03T20:44:24.753Z,1.60
2018-03-03T20:49:28.602Z,1.50
2018-03-03T20:54:32.495Z,1.50
2018-03-03T20:59:35.979Z,1.50
2018-03-03T21:04:40.053Z,1.60
2018-03-03T21:09:44.421Z,1.60
2018-03-03T21:14:49.089Z,1.60
2018-03-03T21:19:53.940Z,1.60
2018-03-03T21:24:57.944Z,1.60
2018-03-03T21:30:01.849Z,1.80
2018-03-03T21:35:06.103Z,1.90
2018-03-03T21:45:14.998Z,1.90
2018-03-03T21:50:18.259Z,1.90
2018-03-03T22:00:27.329Z,2.00
2018-03-03T22:05:30.408Z,2.00
2018-03-03T22:10:33.510Z,2.00
2018-03-03T22:20:47.536Z,2.00
2018-03-03T22:25:50.617Z,2.00
2018-03-03T22:30:53.716Z,2.00
2018-03-03T22:35:58.368Z,2.00
2018-03-03T22:41:01.474Z,1.90
2018-03-03T22:46:05.706Z,2.00
2018-03-03T22:51:08.810Z,2.00
2018-03-03T23:01:17.845Z,2.00
2018-03-03T23:06:21.693Z,2.00
2018-03-03T23:11:26.300Z,1.90
2018-03-03T23:16:29.800Z,1.90
2018-03-03T23:21:32.903Z,1.90
2018-03-03T23:26:35.991Z,1.90
2018-03-03T23:36:44.124Z,2.00
2018-03-03T23:41:47.214Z,2.00
2018-03-03T23:46:51.187Z,1.80
2018-03-03T23:51:55.090Z,1.80
2018-03-03T23:56:58.242Z,1.80
